Terminal Aerodrome Forecast
Issued by NWS

Home | Current Version | Previous Version | Text Only | Print | Product List | Glossary On
Versions: 1 2 3 4 5 6 7 8 9 10 11 12 13 14
000
FTUS41 KCAR 301803 AAA
TAFFVE
TAF AMD
KFVE 301803Z 3018/3118 15013G20KT 5SM -SN OVC030
      TEMPO 3018/3021 2SM -SN OVC023
     FM302300 16008KT P6SM VCSH OVC020
     FM311100 30010KT P6SM OVC025
     FM311400 30013G25KT P6SM BKN040=

USA.gov is the U.S. government's official web portal to all federal, state and local government web resources and services.